Time;durP1;ratioP1;P1;durP2;ratioP2;P2;SDS_P1;SDS_P2;PMS_P1;PMS_P2;Temp;Humidity;BMP_temperature;BMP_pressure;BME280_temperature;BME280_humidity;BME280_pressure;Samples;Min_cycle;Max_cycle;Signal;HPM_P1;HPM_P2
2021/11/30 00:01:00;;;;;;;1.30;1.10;;;-1.20;95.70;;;;;;2070869;28;20238;-63
2021/11/30 00:02:02;;;;;;;1.40;1.20;;;-1.20;95.60;;;;;;2070841;28;20184;-62
2021/11/30 00:03:03;;;;;;;0.80;0.80;;;-1.30;95.80;;;;;;2071281;28;20995;-62
2021/11/30 00:04:04;;;;;;;0.90;0.80;;;-1.20;95.60;;;;;;2071514;28;20231;-61
2021/11/30 00:05:07;;;;;;;1.03;1.00;;;-1.20;95.50;;;;;;2071048;28;20192;-63
2021/11/30 00:06:10;;;;;;;2.00;1.10;;;-1.20;95.60;;;;;;2071189;28;20228;-60
2021/11/30 00:07:10;;;;;;;1.98;1.00;;;-1.20;95.60;;;;;;2070603;28;20185;-63
2021/11/30 00:08:13;;;;;;;1.93;1.10;;;-1.20;95.70;;;;;;2070740;28;20209;-61
2021/11/30 00:10:43;;;;;;;0.98;0.88;;;-1.30;95.80;;;;;;2071239;28;20200;-60
2021/11/30 00:10:43;;;;;;;1.00;0.88;;;-1.30;95.80;;;;;;2071494;28;20205;-61
2021/11/30 00:11:44;;;;;;;1.23;1.00;;;-1.30;96.10;;;;;;2070994;28;20190;-61
2021/11/30 00:12:45;;;;;;;2.30;1.07;;;-1.30;96.80;;;;;;2070343;28;20182;-60
2021/11/30 00:13:45;;;;;;;1.13;1.03;;;-1.30;96.40;;;;;;2070692;28;20185;-63
2021/11/30 00:14:50;;;;;;;1.00;0.90;;;-1.30;96.50;;;;;;2071270;28;20651;-61
2021/11/30 00:15:55;;;;;;;1.25;1.00;;;-1.30;96.50;;;;;;2070879;28;20177;-59
2021/11/30 00:16:57;;;;;;;1.00;0.82;;;-1.30;96.70;;;;;;2071143;28;20189;-61
2021/11/30 00:17:58;;;;;;;1.05;0.90;;;-1.30;96.50;;;;;;2070131;28;20259;-61
2021/11/30 00:18:59;;;;;;;1.13;1.00;;;-1.30;96.60;;;;;;2070286;28;20267;-57
2021/11/30 00:19:59;;;;;;;1.10;0.97;;;-1.30;96.70;;;;;;2070446;28;20573;-57
2021/11/30 00:21:07;;;;;;;2.43;1.00;;;-1.30;96.60;;;;;;2071072;28;20187;-59
2021/11/30 00:22:10;;;;;;;1.13;0.90;;;-1.30;97.30;;;;;;2070127;28;20186;-59
2021/11/30 00:23:13;;;;;;;0.93;0.80;;;-1.30;96.70;;;;;;2070012;28;20192;-57
2021/11/30 00:24:14;;;;;;;2.00;1.00;;;-1.30;96.70;;;;;;2069934;28;20181;-55
2021/11/30 00:25:15;;;;;;;2.20;1.17;;;-1.40;96.80;;;;;;2070999;28;20181;-56
2021/11/30 00:26:15;;;;;;;1.57;1.00;;;-1.30;96.90;;;;;;2070651;28;20193;-62
2021/11/30 00:27:16;;;;;;;1.20;1.10;;;-1.40;96.70;;;;;;2071479;28;20595;-61
2021/11/30 00:28:17;;;;;;;0.98;0.90;;;-1.40;96.70;;;;;;2070837;28;20182;-59
2021/11/30 00:29:18;;;;;;;1.20;0.97;;;-1.40;96.50;;;;;;2071368;28;20185;-58
2021/11/30 00:30:21;;;;;;;2.65;0.98;;;-1.40;96.70;;;;;;2069496;28;20709;-57
2021/11/30 00:31:21;;;;;;;1.00;0.90;;;-1.30;96.60;;;;;;2070657;28;20197;-62
2021/11/30 00:32:22;;;;;;;0.73;0.73;;;-1.40;96.70;;;;;;2070784;28;20710;-62
2021/11/30 00:33:23;;;;;;;0.77;0.70;;;-1.30;96.50;;;;;;2071280;28;20291;-56
2021/11/30 00:34:24;;;;;;;2.83;0.80;;;-1.40;96.40;;;;;;2070736;28;20182;-57
2021/11/30 00:35:25;;;;;;;0.70;0.70;;;-1.40;96.50;;;;;;2069987;28;20197;-62
2021/11/30 00:36:26;;;;;;;2.08;0.77;;;-1.40;96.60;;;;;;2070968;28;20621;-54
2021/11/30 00:37:27;;;;;;;0.80;0.80;;;-1.40;96.50;;;;;;2071058;28;20235;-57
2021/11/30 00:38:27;;;;;;;1.37;0.90;;;-1.40;96.50;;;;;;2070675;28;21237;-55
2021/11/30 00:39:28;;;;;;;1.00;0.90;;;-1.30;96.40;;;;;;2071066;28;20197;-57
2021/11/30 00:40:30;;;;;;;1.00;0.90;;;-1.30;96.60;;;;;;2070105;28;20218;-61
2021/11/30 00:41:30;;;;;;;0.68;0.68;;;-1.30;96.50;;;;;;2070776;28;20213;-60
2021/11/30 00:42:31;;;;;;;1.00;0.80;;;-1.30;96.50;;;;;;2070879;28;20238;-58
2021/11/30 00:43:34;;;;;;;2.10;0.83;;;-1.30;96.50;;;;;;2069662;28;20197;-59
2021/11/30 00:44:36;;;;;;;1.30;1.17;;;-1.30;96.60;;;;;;2069961;28;20677;-60
2021/11/30 00:45:52;;;;;;;1.45;0.90;;;-1.30;96.40;;;;;;2070580;28;20355;-62
2021/11/30 00:46:55;;;;;;;0.85;0.77;;;-1.30;96.40;;;;;;2070979;28;20195;-62
2021/11/30 00:47:58;;;;;;;0.90;0.90;;;-1.30;96.10;;;;;;2070814;28;20193;-64
2021/11/30 00:49:00;;;;;;;2.58;0.90;;;-1.30;96.00;;;;;;2070698;28;20216;-60
2021/11/30 00:50:06;;;;;;;0.70;0.70;;;-1.30;96.10;;;;;;2071488;28;20645;-64
2021/11/30 00:51:17;;;;;;;1.13;1.02;;;-1.30;96.10;;;;;;2072466;28;20224;-55
2021/11/30 00:52:18;;;;;;;0.95;0.75;;;-1.20;96.10;;;;;;2071834;28;20215;-62
2021/11/30 00:53:19;;;;;;;1.20;1.00;;;-1.20;96.10;;;;;;2072377;28;20201;-68
2021/11/30 00:54:23;;;;;;;1.10;0.93;;;-1.30;96.40;;;;;;2072551;28;20182;-62
2021/11/30 00:55:23;;;;;;;1.92;1.10;;;-1.30;95.90;;;;;;2073188;28;20903;-63
2021/11/30 00:56:24;;;;;;;1.27;0.80;;;-1.30;95.90;;;;;;2073300;28;20189;-63
2021/11/30 00:57:25;;;;;;;1.37;1.00;;;-1.30;96.00;;;;;;2072850;28;20204;-62
2021/11/30 00:58:26;;;;;;;1.20;0.93;;;-1.20;95.90;;;;;;2072973;28;20192;-63
2021/11/30 00:59:27;;;;;;;1.33;1.07;;;-1.20;95.90;;;;;;2072723;28;20601;-63
2021/11/30 01:00:30;;;;;;;1.15;1.05;;;-1.30;95.70;;;;;;2071782;28;20688;-61
2021/11/30 01:01:31;;;;;;;1.10;0.93;;;-1.30;95.60;;;;;;2072849;28;20252;-62
2021/11/30 01:02:33;;;;;;;2.60;1.05;;;-1.20;95.50;;;;;;2072943;28;20208;-60
2021/11/30 01:03:34;;;;;;;1.20;1.10;;;-1.20;95.70;;;;;;2072077;28;20189;-62
2021/11/30 01:04:35;;;;;;;3.03;1.35;;;-1.20;95.70;;;;;;2072649;28;20177;-61
2021/11/30 01:05:37;;;;;;;4.15;1.13;;;-1.20;95.70;;;;;;2072921;28;20185;-61
2021/11/30 01:06:39;;;;;;;2.03;1.30;;;-1.20;95.70;;;;;;2072890;28;20263;-61
2021/11/30 01:07:40;;;;;;;2.20;1.65;;;-1.30;95.70;;;;;;2072152;28;20276;-61
2021/11/30 01:08:40;;;;;;;1.40;1.20;;;-1.30;95.80;;;;;;2063270;28;20179;-63
2021/11/30 01:09:42;;;;;;;3.73;1.57;;;-1.20;96.50;;;;;;2071503;28;20596;-62
2021/11/30 01:10:43;;;;;;;1.20;1.10;;;-1.20;95.90;;;;;;2073066;28;20200;-62
2021/11/30 01:11:45;;;;;;;1.47;1.37;;;-1.20;95.90;;;;;;2073069;28;20194;-60
2021/11/30 01:12:46;;;;;;;1.90;1.40;;;-1.20;95.70;;;;;;2071816;28;20178;-62
2021/11/30 01:13:47;;;;;;;2.83;1.40;;;-1.20;95.80;;;;;;2071744;28;20188;-61
2021/11/30 01:14:48;;;;;;;1.63;1.00;;;-1.30;95.90;;;;;;2072807;28;20188;-62
2021/11/30 01:15:49;;;;;;;3.43;1.50;;;-1.20;96.00;;;;;;2073074;28;20182;-60
2021/11/30 01:16:49;;;;;;;1.85;1.58;;;-1.30;96.00;;;;;;2071789;28;20659;-62
2021/11/30 01:17:50;;;;;;;1.90;1.40;;;-1.30;96.10;;;;;;2072509;28;20190;-62
2021/11/30 01:18:51;;;;;;;2.03;1.38;;;-1.30;96.20;;;;;;2073089;28;20178;-61
2021/11/30 01:19:52;;;;;;;1.80;1.40;;;-1.30;96.20;;;;;;2071975;28;20609;-61
2021/11/30 01:20:53;;;;;;;2.90;1.60;;;-1.30;96.20;;;;;;2071785;28;20185;-61
2021/11/30 01:21:54;;;;;;;3.43;1.60;;;-1.30;96.10;;;;;;2072946;28;20217;-62
2021/11/30 01:22:56;;;;;;;1.85;1.30;;;-1.20;96.10;;;;;;2073398;28;20182;-63
2021/11/30 01:23:56;;;;;;;2.28;1.40;;;-1.20;95.80;;;;;;2074404;28;20650;-62
2021/11/30 01:24:57;;;;;;;2.47;1.80;;;-1.20;95.80;;;;;;2074483;28;20185;-62
2021/11/30 01:26:00;;;;;;;3.30;1.70;;;-1.30;95.70;;;;;;2074266;28;20617;-63
2021/11/30 01:27:00;;;;;;;4.13;1.60;;;-1.20;95.80;;;;;;2074308;28;20216;-63
2021/11/30 01:28:02;;;;;;;3.30;1.70;;;-1.20;95.90;;;;;;2074159;28;20170;-61
2021/11/30 01:29:04;;;;;;;4.53;1.38;;;-1.20;95.90;;;;;;2074351;28;20256;-63
2021/11/30 01:30:08;;;;;;;2.00;1.60;;;-1.20;96.00;;;;;;2074157;28;20557;-63
2021/11/30 01:31:10;;;;;;;2.47;1.70;;;-1.20;96.00;;;;;;2074412;28;20256;-63
2021/11/30 01:32:11;;;;;;;3.95;1.70;;;-1.20;95.90;;;;;;2074315;28;20170;-63
2021/11/30 01:33:12;;;;;;;3.17;1.33;;;-1.20;95.60;;;;;;2074457;28;20523;-63
2021/11/30 01:34:12;;;;;;;2.00;1.40;;;-1.30;95.60;;;;;;2074426;28;20170;-62
2021/11/30 01:35:16;;;;;;;2.43;1.53;;;-1.30;95.80;;;;;;2074490;28;20177;-61
2021/11/30 01:36:18;;;;;;;1.40;1.30;;;-1.30;95.80;;;;;;2074333;28;20733;-61
2021/11/30 01:37:19;;;;;;;1.75;1.65;;;-1.30;95.80;;;;;;2074592;28;20189;-62
2021/11/30 01:38:19;;;;;;;4.37;1.77;;;-1.20;95.70;;;;;;2074304;28;20522;-63
2021/11/30 01:39:21;;;;;;;2.23;1.70;;;-1.20;95.10;;;;;;2074533;28;20170;-62
2021/11/30 01:40:24;;;;;;;1.98;1.65;;;-1.20;94.90;;;;;;2073997;28;20204;-62
2021/11/30 01:41:26;;;;;;;3.20;1.77;;;-1.20;94.70;;;;;;2074296;28;20597;-62
2021/11/30 01:42:28;;;;;;;5.43;1.55;;;-1.20;94.70;;;;;;2074388;28;20642;-62
2021/11/30 01:43:39;;;;;;;2.05;1.80;;;-1.20;94.70;;;;;;2074228;28;20548;-62
2021/11/30 01:45:57;;;;;;;2.38;1.48;;;-1.20;95.20;;;;;;2074624;28;20178;-62
2021/11/30 01:49:15;;;;;;;4.43;1.55;;;-1.20;94.60;;;;;;2074235;28;20177;-62
2021/11/30 01:50:16;;;;;;;2.92;1.70;;;-1.20;94.40;;;;;;2074055;28;20210;-62
2021/11/30 01:51:17;;;;;;;3.30;2.17;;;-1.20;94.30;;;;;;2074221;28;20205;-62
2021/11/30 01:52:19;;;;;;;3.50;1.80;;;-1.20;94.30;;;;;;2074307;28;20631;-61
2021/11/30 01:53:20;;;;;;;4.22;1.80;;;-1.20;94.50;;;;;;2074277;28;20181;-62
2021/11/30 01:54:20;;;;;;;3.30;1.90;;;-1.20;94.40;;;;;;2074319;28;20665;-62
2021/11/30 01:55:22;;;;;;;2.77;1.90;;;-1.20;94.20;;;;;;2074476;28;20181;-62
2021/11/30 01:56:23;;;;;;;3.53;1.88;;;-1.20;94.30;;;;;;2074369;28;20173;-63
2021/11/30 01:57:26;;;;;;;8.20;2.17;;;-1.20;94.30;;;;;;2074181;28;20180;-63
2021/11/30 01:58:27;;;;;;;2.50;2.30;;;-1.20;94.20;;;;;;2074068;28;20181;-63
2021/11/30 01:59:27;;;;;;;1.87;1.60;;;-1.20;94.20;;;;;;2074008;28;20180;-62
2021/11/30 02:00:29;;;;;;;4.50;1.90;;;-1.20;94.10;;;;;;2073690;28;20281;-61
2021/11/30 02:01:30;;;;;;;5.63;1.90;;;-1.20;94.30;;;;;;2072904;28;20944;-63
2021/11/30 02:02:30;;;;;;;4.50;1.90;;;-1.20;93.70;;;;;;2073941;28;20178;-63
2021/11/30 02:03:31;;;;;;;3.97;1.70;;;-1.20;93.80;;;;;;2073915;28;20223;-63
2021/11/30 02:04:32;;;;;;;3.17;2.00;;;-1.20;93.80;;;;;;2073525;28;20190;-62
2021/11/30 02:05:39;;;;;;;2.78;1.70;;;-1.20;93.70;;;;;;2073205;28;20177;-62
2021/11/30 02:06:40;;;;;;;4.07;1.60;;;-1.10;93.50;;;;;;2073301;28;20197;-63
2021/11/30 02:07:41;;;;;;;3.87;1.60;;;-1.10;93.70;;;;;;2073495;28;20207;-63
2021/11/30 02:08:42;;;;;;;3.97;1.42;;;-1.20;93.20;;;;;;2073961;28;20208;-63
2021/11/30 02:09:45;;;;;;;2.67;1.60;;;-1.10;93.20;;;;;;2073608;28;20239;-63
2021/11/30 02:10:46;;;;;;;2.40;1.60;;;-1.20;93.10;;;;;;2073912;28;20176;-62
2021/11/30 02:11:47;;;;;;;2.10;1.50;;;-1.20;93.20;;;;;;2073801;28;20560;-61
2021/11/30 02:12:48;;;;;;;3.35;1.50;;;-1.10;92.90;;;;;;2073956;28;20178;-62
2021/11/30 02:13:48;;;;;;;3.42;2.20;;;-1.20;93.00;;;;;;2073819;28;20223;-61
2021/11/30 02:14:50;;;;;;;3.23;1.70;;;-1.10;93.10;;;;;;2073514;28;20170;-62
2021/11/30 02:15:55;;;;;;;4.10;1.58;;;-1.20;93.30;;;;;;2073014;28;20232;-62
2021/11/30 02:16:56;;;;;;;2.15;1.60;;;-1.20;93.20;;;;;;2073285;28;20668;-63
2021/11/30 02:17:59;;;;;;;2.75;1.80;;;-1.20;93.10;;;;;;2073741;28;20169;-63
2021/11/30 02:19:01;;;;;;;3.42;1.70;;;-1.20;93.10;;;;;;2073746;28;20213;-63
2021/11/30 02:20:04;;;;;;;2.55;1.80;;;-1.20;93.10;;;;;;2073345;28;20212;-62
2021/11/30 02:21:07;;;;;;;4.15;1.75;;;-1.20;92.80;;;;;;2073478;28;20186;-62
2021/11/30 02:22:11;;;;;;;2.35;1.60;;;-1.20;93.00;;;;;;2073782;28;20205;-61
2021/11/30 02:23:31;;;;;;;6.47;2.08;;;-1.20;92.90;;;;;;2073742;28;20253;-63
2021/11/30 02:24:32;;;;;;;2.60;1.75;;;-1.20;93.20;;;;;;2073798;28;20256;-63
2021/11/30 02:25:33;;;;;;;2.47;1.60;;;-1.20;92.80;;;;;;2073817;28;20646;-62
2021/11/30 02:26:36;;;;;;;1.53;1.40;;;-1.20;92.80;;;;;;2073627;28;20173;-63
2021/11/30 02:27:37;;;;;;;2.25;1.70;;;-1.20;92.80;;;;;;2073746;28;20166;-62
2021/11/30 02:28:45;;;;;;;1.80;1.50;;;-1.10;92.80;;;;;;2073691;28;20189;-63
2021/11/30 02:29:47;;;;;;;2.63;1.85;;;-1.10;92.80;;;;;;2073484;28;20178;-62
2021/11/30 02:30:48;;;;;;;5.38;1.92;;;-1.10;92.90;;;;;;2073766;28;20181;-63
2021/11/30 02:31:49;;;;;;;4.63;1.90;;;-1.10;93.00;;;;;;2073708;28;20182;-63
2021/11/30 02:32:50;;;;;;;3.53;1.90;;;-1.10;93.10;;;;;;2073577;28;20272;-62
2021/11/30 02:33:51;;;;;;;3.42;1.98;;;-1.10;92.70;;;;;;2073114;28;20209;-63
2021/11/30 02:34:52;;;;;;;2.67;1.80;;;-1.10;92.60;;;;;;2064984;28;20182;-63
2021/11/30 02:35:53;;;;;;;1.70;1.60;;;-1.10;92.90;;;;;;2073193;28;20188;-63
2021/11/30 02:36:55;;;;;;;3.90;1.95;;;-1.10;92.90;;;;;;2073491;28;20654;-63
2021/11/30 02:37:58;;;;;;;4.45;1.60;;;-1.10;92.80;;;;;;2073524;28;20511;-62
2021/11/30 02:39:04;;;;;;;2.70;1.80;;;-1.10;92.80;;;;;;2073501;28;20295;-63
2021/11/30 02:40:06;;;;;;;4.00;1.45;;;-1.10;92.70;;;;;;2073290;28;20178;-63
2021/11/30 02:41:06;;;;;;;5.18;1.73;;;-1.10;92.90;;;;;;2073363;28;20182;-63
2021/11/30 02:42:08;;;;;;;1.90;1.50;;;-1.20;93.00;;;;;;2073574;28;20173;-62
2021/11/30 02:43:09;;;;;;;2.03;1.60;;;-1.20;93.10;;;;;;2073554;28;20173;-63
2021/11/30 02:44:16;;;;;;;4.82;1.50;;;-1.20;93.10;;;;;;2073700;28;20196;-63
2021/11/30 02:45:17;;;;;;;3.25;1.63;;;-1.10;93.10;;;;;;2073608;28;20178;-63
2021/11/30 02:46:54;;;;;;;3.33;1.70;;;-1.20;92.80;;;;;;2073696;28;20174;-62
2021/11/30 02:47:55;;;;;;;4.97;1.63;;;-1.20;92.80;;;;;;2069586;28;20259;-63
2021/11/30 02:48:56;;;;;;;3.10;1.63;;;-1.20;93.00;;;;;;2073014;28;20181;-62
2021/11/30 02:49:57;;;;;;;1.80;1.50;;;-1.20;92.50;;;;;;2073325;28;20255;-63
2021/11/30 02:51:01;;;;;;;2.85;1.50;;;-1.20;92.50;;;;;;2081259;28;20544;-63
2021/11/30 02:52:09;;;;;;;2.85;1.58;;;-1.10;92.70;;;;;;2080815;28;20228;-63
2021/11/30 02:53:15;;;;;;;4.72;1.80;;;-1.10;92.70;;;;;;2073604;28;20259;-61
2021/11/30 02:54:21;;;;;;;2.85;1.88;;;-1.20;92.20;;;;;;2073586;28;20634;-63
2021/11/30 02:55:23;;;;;;;3.50;1.52;;;-1.10;92.50;;;;;;2073411;28;20173;-62
2021/11/30 02:56:23;;;;;;;3.50;1.50;;;-1.10;92.50;;;;;;2073631;28;20852;-63
2021/11/30 02:57:24;;;;;;;1.90;1.40;;;-1.10;92.40;;;;;;2073468;28;20170;-63
2021/11/30 02:58:25;;;;;;;2.92;1.42;;;-1.20;92.30;;;;;;2073671;28;20177;-63
2021/11/30 02:59:31;;;;;;;3.37;1.57;;;-1.20;92.30;;;;;;2073530;28;20666;-62
2021/11/30 03:00:31;;;;;;;2.17;1.40;;;-1.10;92.40;;;;;;2073572;28;20584;-63
2021/11/30 03:01:33;;;;;;;1.73;1.63;;;-1.20;92.30;;;;;;2073457;28;20224;-63
2021/11/30 03:02:36;;;;;;;3.58;1.33;;;-1.20;92.10;;;;;;2073461;28;20781;-63
2021/11/30 03:03:36;;;;;;;1.50;1.30;;;-1.20;91.90;;;;;;2073449;28;20658;-62
2021/11/30 03:04:39;;;;;;;1.80;1.20;;;-1.10;91.90;;;;;;2073700;28;20162;-63
2021/11/30 03:05:39;;;;;;;3.08;1.60;;;-1.20;92.00;;;;;;2073494;28;20194;-63
2021/11/30 03:06:41;;;;;;;3.90;1.50;;;-1.20;92.60;;;;;;2073658;28;20166;-62
2021/11/30 03:07:42;;;;;;;3.70;1.67;;;-1.20;92.10;;;;;;2072939;28;20169;-62
2021/11/30 03:08:43;;;;;;;3.27;1.60;;;-1.20;92.20;;;;;;2072848;28;20178;-63
2021/11/30 03:09:44;;;;;;;3.93;1.60;;;-1.20;92.20;;;;;;2073134;28;20190;-61
2021/11/30 03:10:45;;;;;;;1.92;1.50;;;-1.20;92.20;;;;;;2073498;28;20424;-62
2021/11/30 03:11:46;;;;;;;4.97;1.57;;;-1.10;92.10;;;;;;2073609;28;20281;-62
2021/11/30 03:12:49;;;;;;;3.53;1.35;;;-1.20;91.90;;;;;;2073362;28;20196;-63
2021/11/30 03:13:50;;;;;;;2.08;1.60;;;-1.10;91.70;;;;;;2073606;28;20174;-60
2021/11/30 03:14:51;;;;;;;2.20;1.50;;;-1.20;91.90;;;;;;2073568;28;20178;-62
2021/11/30 03:15:56;;;;;;;4.23;1.50;;;-1.20;91.90;;;;;;2073529;28;20230;-62
2021/11/30 03:16:58;;;;;;;2.45;1.60;;;-1.20;92.10;;;;;;2073440;28;20257;-61
2021/11/30 03:18:00;;;;;;;3.17;1.67;;;-1.20;92.00;;;;;;2073143;28;20205;-62
2021/11/30 03:19:03;;;;;;;3.03;1.52;;;-1.20;92.10;;;;;;2071324;28;20178;-62
2021/11/30 03:20:05;;;;;;;4.65;1.73;;;-1.10;92.10;;;;;;2073136;28;20184;-63
2021/11/30 03:21:06;;;;;;;6.85;2.08;;;-1.10;92.10;;;;;;2073350;28;20188;-63
2021/11/30 03:22:07;;;;;;;3.03;1.80;;;-1.10;91.90;;;;;;2073388;28;20177;-63
2021/11/30 03:23:08;;;;;;;1.85;1.60;;;-1.10;91.90;;;;;;2073262;28;20173;-63
2021/11/30 03:24:09;;;;;;;2.47;1.60;;;-1.10;92.00;;;;;;2073343;28;20176;-62
2021/11/30 03:25:11;;;;;;;2.80;1.67;;;-1.10;92.10;;;;;;2073247;28;20174;-62
2021/11/30 03:26:11;;;;;;;3.30;1.85;;;-1.10;92.00;;;;;;2073378;28;20256;-63
2021/11/30 03:27:12;;;;;;;3.73;1.70;;;-1.10;92.00;;;;;;2073276;28;20657;-62
2021/11/30 03:28:13;;;;;;;2.77;1.40;;;-1.10;92.00;;;;;;2073495;28;20308;-62
2021/11/30 03:29:13;;;;;;;2.53;1.70;;;-1.10;92.00;;;;;;2073348;28;20555;-62
2021/11/30 03:30:16;;;;;;;3.53;1.87;;;-1.10;92.20;;;;;;2073042;28;20197;-62
2021/11/30 03:31:35;;;;;;;3.58;1.85;;;-1.20;92.40;;;;;;2073444;28;20209;-62
2021/11/30 03:33:59;;;;;;;3.08;1.55;;;-1.10;92.20;;;;;;2073469;28;20197;-62
2021/11/30 03:35:01;;;;;;;1.88;1.60;;;-1.20;92.10;;;;;;2073289;28;20174;-62
2021/11/30 03:36:03;;;;;;;2.08;1.50;;;-1.20;92.10;;;;;;2072617;28;20705;-62
2021/11/30 03:37:09;;;;;;;2.22;1.60;;;-1.20;92.20;;;;;;2072737;28;20189;-63
2021/11/30 03:38:09;;;;;;;4.10;1.75;;;-1.20;92.30;;;;;;2073310;28;20181;-63
2021/11/30 03:39:14;;;;;;;4.60;1.77;;;-1.20;92.10;;;;;;2073328;28;20673;-62
2021/11/30 03:40:16;;;;;;;1.90;1.48;;;-1.20;92.20;;;;;;2072942;28;20695;-62
2021/11/30 03:41:17;;;;;;;2.40;1.58;;;-1.20;91.90;;;;;;2072538;28;20243;-62
2021/11/30 03:42:19;;;;;;;2.65;1.50;;;-1.20;92.00;;;;;;2072687;28;20176;-62
2021/11/30 03:43:19;;;;;;;1.70;1.35;;;-1.20;92.10;;;;;;2073389;28;20208;-63
2021/11/30 03:44:21;;;;;;;2.00;1.50;;;-1.30;92.20;;;;;;2073310;28;20548;-62
2021/11/30 03:45:22;;;;;;;2.22;1.48;;;-1.30;92.10;;;;;;2073194;28;20173;-62
2021/11/30 03:46:23;;;;;;;3.40;1.60;;;-1.20;92.20;;;;;;2073293;28;20704;-62
2021/11/30 03:47:24;;;;;;;2.80;1.40;;;-1.20;92.20;;;;;;2073321;28;20184;-62
2021/11/30 03:48:24;;;;;;;2.05;1.70;;;-1.20;92.00;;;;;;2073252;28;20650;-62
2021/11/30 03:49:27;;;;;;;5.90;1.90;;;-1.20;92.10;;;;;;2073140;28;20272;-62
2021/11/30 03:50:27;;;;;;;2.53;1.45;;;-1.20;92.20;;;;;;2072910;28;20677;-64
2021/11/30 03:51:28;;;;;;;2.17;1.60;;;-1.20;92.40;;;;;;2073324;28;20264;-62
2021/11/30 03:52:29;;;;;;;3.10;1.53;;;-1.20;92.20;;;;;;2073313;28;20182;-61
2021/11/30 03:53:30;;;;;;;4.23;1.57;;;-1.20;92.20;;;;;;2073234;28;20252;-62
2021/11/30 03:54:30;;;;;;;2.67;1.30;;;-1.20;92.20;;;;;;2073372;28;20271;-62
2021/11/30 03:55:31;;;;;;;2.47;1.67;;;-1.20;91.70;;;;;;2071720;28;20260;-61
2021/11/30 03:56:33;;;;;;;3.27;1.33;;;-1.20;91.80;;;;;;2073180;28;20177;-62
2021/11/30 03:57:34;;;;;;;3.42;1.60;;;-1.20;92.50;;;;;;2073148;28;21306;-62
2021/11/30 03:58:35;;;;;;;1.87;1.50;;;-1.30;92.10;;;;;;2073377;28;20239;-63
2021/11/30 03:59:35;;;;;;;2.13;1.60;;;-1.30;92.20;;;;;;2073061;28;20261;-61
2021/11/30 04:00:36;;;;;;;4.20;1.60;;;-1.20;92.40;;;;;;2073073;28;20181;-62
2021/11/30 04:01:37;;;;;;;2.10;1.53;;;-1.30;92.30;;;;;;2072933;28;20205;-62
2021/11/30 04:02:38;;;;;;;2.77;1.30;;;-1.30;92.40;;;;;;2073265;28;20221;-62
2021/11/30 04:03:41;;;;;;;3.97;1.60;;;-1.30;92.40;;;;;;2073194;28;20889;-62
2021/11/30 04:04:45;;;;;;;2.30;1.45;;;-1.30;92.20;;;;;;2073264;28;20192;-62
2021/11/30 04:05:45;;;;;;;1.65;1.30;;;-1.30;92.00;;;;;;2073197;28;20181;-62
2021/11/30 04:06:49;;;;;;;4.13;1.50;;;-1.30;92.00;;;;;;2073135;28;20224;-62
2021/11/30 04:07:50;;;;;;;4.80;1.30;;;-1.30;92.00;;;;;;2073182;28;20201;-61
2021/11/30 04:08:50;;;;;;;2.27;1.43;;;-1.30;92.20;;;;;;2073220;28;20181;-62
2021/11/30 04:09:51;;;;;;;2.55;1.20;;;-1.30;92.10;;;;;;2072830;28;20209;-62
2021/11/30 04:10:52;;;;;;;3.33;2.00;;;-1.30;92.00;;;;;;2072497;28;20197;-62
2021/11/30 04:11:54;;;;;;;2.67;1.70;;;-1.30;92.30;;;;;;2072599;28;20212;-62
2021/11/30 04:12:55;;;;;;;6.75;1.63;;;-1.30;92.30;;;;;;2073079;28;20621;-63
2021/11/30 04:13:55;;;;;;;1.67;1.27;;;-1.30;92.40;;;;;;2073034;28;20213;-62
2021/11/30 04:14:56;;;;;;;2.30;1.57;;;-1.30;92.40;;;;;;2073114;28;20236;-62
2021/11/30 04:15:57;;;;;;;2.00;1.47;;;-1.20;92.30;;;;;;2073056;28;20186;-62
2021/11/30 04:16:58;;;;;;;3.80;1.27;;;-1.30;92.30;;;;;;2073063;28;20177;-61
2021/11/30 04:17:58;;;;;;;4.27;1.60;;;-1.20;92.00;;;;;;2073025;28;20530;-63
2021/11/30 04:18:59;;;;;;;2.60;1.57;;;-1.30;91.90;;;;;;2073099;28;20191;-62
2021/11/30 04:20:00;;;;;;;2.88;1.50;;;-1.30;92.10;;;;;;2072311;28;20308;-62
2021/11/30 04:21:01;;;;;;;1.75;1.42;;;-1.30;92.10;;;;;;2072987;28;20177;-62
2021/11/30 04:22:02;;;;;;;2.50;1.60;;;-1.30;92.20;;;;;;2072954;28;20647;-62
2021/11/30 04:23:03;;;;;;;3.58;1.67;;;-1.30;91.90;;;;;;2073007;28;20647;-63
2021/11/30 04:24:04;;;;;;;1.45;1.35;;;-1.30;92.00;;;;;;2072702;28;20177;-62
2021/11/30 04:25:08;;;;;;;2.90;1.50;;;-1.30;92.20;;;;;;2072881;28;20178;-62
2021/11/30 04:26:09;;;;;;;2.80;1.75;;;-1.30;92.40;;;;;;2072535;28;20172;-62
2021/11/30 04:27:10;;;;;;;1.47;1.37;;;-1.30;92.60;;;;;;2072439;28;20208;-62
2021/11/30 04:28:10;;;;;;;2.13;1.40;;;-1.30;92.30;;;;;;2073080;28;20170;-63
2021/11/30 04:29:12;;;;;;;2.10;1.30;;;-1.40;92.20;;;;;;2072954;28;20223;-62
2021/11/30 04:30:13;;;;;;;2.33;1.50;;;-1.40;92.20;;;;;;2072808;28;20270;-61
2021/11/30 04:31:13;;;;;;;2.17;1.60;;;-1.30;92.40;;;;;;2072903;28;20239;-63
2021/11/30 04:32:14;;;;;;;2.00;1.50;;;-1.30;92.50;;;;;;2072978;28;20793;-61
2021/11/30 04:33:15;;;;;;;3.33;1.70;;;-1.30;92.60;;;;;;2072950;28;20186;-62
2021/11/30 04:34:17;;;;;;;6.37;1.97;;;-1.30;92.60;;;;;;2073140;28;20253;-63
2021/11/30 04:35:17;;;;;;;2.85;1.70;;;-1.30;92.70;;;;;;2072986;28;20181;-62
2021/11/30 04:36:19;;;;;;;1.73;1.40;;;-1.30;92.20;;;;;;2072449;28;20244;-62
2021/11/30 04:37:20;;;;;;;1.98;1.60;;;-1.30;92.20;;;;;;2072361;28;20189;-62
2021/11/30 04:38:21;;;;;;;1.58;1.30;;;-1.30;92.20;;;;;;2073215;28;20177;-62
2021/11/30 04:39:21;;;;;;;3.67;1.75;;;-1.30;92.40;;;;;;2072975;28;20166;-63
2021/11/30 04:40:22;;;;;;;2.23;1.60;;;-1.30;92.50;;;;;;2072844;28;20685;-61
2021/11/30 04:41:24;;;;;;;4.43;1.80;;;-1.30;93.00;;;;;;2072983;28;20166;-63
2021/11/30 04:42:27;;;;;;;2.47;1.80;;;-1.40;92.30;;;;;;2073149;28;20185;-62
2021/11/30 04:43:34;;;;;;;2.28;1.88;;;-1.30;92.40;;;;;;2072839;28;20657;-61
2021/11/30 04:44:37;;;;;;;3.45;1.83;;;-1.40;92.30;;;;;;2073076;28;20173;-62
2021/11/30 04:45:55;;;;;;;6.28;1.90;;;-1.40;92.20;;;;;;2073055;28;20205;-63
2021/11/30 04:46:59;;;;;;;3.00;1.83;;;-1.40;92.20;;;;;;2072964;28;20176;-62
2021/11/30 04:48:00;;;;;;;2.97;1.50;;;-1.40;92.10;;;;;;2073016;28;20681;-62
2021/11/30 04:49:13;;;;;;;3.53;2.27;;;-1.40;92.10;;;;;;2073109;28;20173;-62
2021/11/30 04:50:19;;;;;;;5.80;1.80;;;-1.40;92.10;;;;;;2072811;28;20200;-62
2021/11/30 04:51:20;;;;;;;4.75;1.60;;;-1.40;92.10;;;;;;2073045;28;20174;-62
2021/11/30 04:52:21;;;;;;;2.75;1.60;;;-1.40;91.90;;;;;;2073136;28;20201;-61
2021/11/30 04:53:24;;;;;;;3.37;2.07;;;-1.40;92.10;;;;;;2073118;28;20189;-62
2021/11/30 04:54:25;;;;;;;4.63;1.80;;;-1.40;92.30;;;;;;2073070;28;20408;-62
2021/11/30 04:55:29;;;;;;;2.03;1.83;;;-1.50;91.90;;;;;;2072052;28;20213;-62
2021/11/30 04:56:30;;;;;;;3.25;1.80;;;-1.40;92.10;;;;;;2072523;28;20220;-62
2021/11/30 04:57:30;;;;;;;3.73;1.67;;;-1.40;91.80;;;;;;2072308;28;20674;-63
2021/11/30 04:58:31;;;;;;;2.40;1.70;;;-1.50;91.90;;;;;;2064168;28;20174;-62
2021/11/30 04:59:32;;;;;;;3.27;1.67;;;-1.50;92.20;;;;;;2072264;28;20749;-62
2021/11/30 05:00:35;;;;;;;2.58;1.38;;;-1.40;92.00;;;;;;2072126;28;20679;-62
2021/11/30 05:01:36;;;;;;;5.03;1.85;;;-1.50;91.80;;;;;;2072213;28;20653;-62
2021/11/30 05:02:37;;;;;;;3.07;1.80;;;-1.50;92.20;;;;;;2072985;28;20182;-62
2021/11/30 05:03:38;;;;;;;4.00;1.67;;;-1.50;92.20;;;;;;2073008;28;20192;-62
2021/11/30 05:04:39;;;;;;;3.20;1.70;;;-1.50;92.10;;;;;;2072890;28;20185;-62
2021/11/30 05:05:40;;;;;;;3.10;1.97;;;-1.50;92.20;;;;;;2072827;28;20690;-62
2021/11/30 05:06:43;;;;;;;3.35;2.10;;;-1.50;92.30;;;;;;2072733;28;20181;-62
2021/11/30 05:07:45;;;;;;;3.33;1.73;;;-1.50;92.20;;;;;;2080333;28;20700;-63
2021/11/30 05:08:45;;;;;;;2.33;1.52;;;-1.50;92.70;;;;;;2072182;28;20673;-62
2021/11/30 05:09:46;;;;;;;2.47;1.60;;;-1.50;92.30;;;;;;2071841;28;20273;-62
2021/11/30 05:10:47;;;;;;;3.50;2.00;;;-1.50;92.60;;;;;;2079971;28;20263;-62
2021/11/30 05:11:47;;;;;;;2.30;1.63;;;-1.50;92.70;;;;;;2072939;28;20652;-61
2021/11/30 05:12:48;;;;;;;2.47;1.77;;;-1.50;92.20;;;;;;2072842;28;20272;-62
2021/11/30 05:13:49;;;;;;;2.57;1.73;;;-1.50;92.30;;;;;;2073016;28;20216;-62
2021/11/30 05:14:49;;;;;;;4.50;1.90;;;-1.50;92.40;;;;;;2073042;28;20185;-62
2021/11/30 05:15:50;;;;;;;4.70;2.10;;;-1.60;92.40;;;;;;2072836;28;20186;-62
2021/11/30 05:16:51;;;;;;;2.28;1.80;;;-1.60;92.30;;;;;;2072054;28;20178;-62
2021/11/30 05:17:52;;;;;;;3.70;2.00;;;-1.60;92.20;;;;;;2072360;28;20188;-62
2021/11/30 05:18:52;;;;;;;2.03;1.67;;;-1.60;92.40;;;;;;2072829;28;20174;-62
2021/11/30 05:19:53;;;;;;;2.60;1.70;;;-1.50;92.10;;;;;;2072415;28;20177;-62
2021/11/30 05:20:54;;;;;;;4.33;1.90;;;-1.60;92.10;;;;;;2072737;28;20180;-62
2021/11/30 05:21:55;;;;;;;3.57;1.87;;;-1.60;92.20;;;;;;2072736;28;20212;-62
2021/11/30 05:22:55;;;;;;;3.27;1.70;;;-1.60;92.10;;;;;;2072926;28;20204;-62
2021/11/30 05:24:01;;;;;;;3.70;2.10;;;-1.60;91.80;;;;;;2072919;28;20230;-62
2021/11/30 05:25:03;;;;;;;2.50;2.10;;;-1.60;91.80;;;;;;2072801;28;20172;-63
2021/11/30 05:26:05;;;;;;;3.28;2.13;;;-1.60;92.10;;;;;;2072204;28;20233;-61
2021/11/30 05:27:06;;;;;;;3.05;2.33;;;-1.60;92.00;;;;;;2072210;28;20238;-61
2021/11/30 05:28:08;;;;;;;3.77;2.00;;;-1.60;92.00;;;;;;2073005;28;20180;-62
2021/11/30 05:29:09;;;;;;;2.08;1.70;;;-1.60;92.30;;;;;;2072843;28;20231;-62